createdAt,value
2023-01-13T05:38:30.962Z,996.58
2023-01-13T05:39:31.944Z,996.50
2023-01-13T05:40:31.986Z,996.58
2023-01-13T05:41:31.909Z,996.62
2023-01-13T05:42:31.909Z,996.58
2023-01-13T05:43:31.930Z,996.60
2023-01-13T05:44:31.870Z,996.47
2023-01-13T05:45:31.870Z,996.56
2023-01-13T05:46:31.856Z,996.45
2023-01-13T05:47:31.848Z,996.53
2023-01-13T05:48:31.835Z,996.50
2023-01-13T06:13:02.667Z,996.36
2023-01-13T06:14:03.631Z,996.33
2023-01-13T06:15:03.613Z,996.29
2023-01-13T06:16:03.640Z,996.22
2023-01-13T06:17:03.580Z,996.29
2023-01-13T09:06:02.190Z,996.80
2023-01-13T09:07:03.367Z,996.47
2023-01-13T11:48:28.015Z,997.42
2023-01-13T11:49:28.983Z,997.33
2023-01-13T11:50:28.964Z,997.25
2023-01-13T11:51:28.971Z,997.30
2023-01-13T11:52:28.941Z,997.38
2023-01-13T14:41:42.543Z,999.02
2023-01-13T14:42:43.519Z,999.19
2023-01-13T14:43:43.488Z,999.10
2023-01-13T14:44:43.493Z,999.18
2023-01-13T14:54:07.647Z,999.37
2023-01-13T14:55:08.609Z,999.22
2023-01-13T14:56:08.633Z,999.39
2023-01-13T15:03:08.718Z,999.41
2023-01-13T15:04:09.623Z,999.29
2023-01-13T15:05:09.646Z,999.30
2023-01-13T15:06:09.593Z,999.49
2023-01-13T15:07:09.594Z,999.43
2023-01-13T15:08:09.598Z,999.38
2023-01-13T15:43:26.445Z,1000.19
2023-01-13T15:44:27.425Z,999.87
2023-01-13T15:45:27.413Z,999.94
2023-01-13T15:46:27.467Z,999.88
2023-01-13T15:47:28.078Z,1000.01
2023-01-13T15:48:27.380Z,1000.00
2023-01-13T16:06:57.197Z,1000.54
2023-01-13T16:07:58.166Z,1000.51
2023-01-13T16:08:58.159Z,1000.69
2023-01-13T16:09:58.157Z,1000.76
2023-01-13T16:10:58.179Z,1000.75
2023-01-13T16:11:58.164Z,1000.72
2023-01-13T16:12:58.113Z,1000.76
2023-01-13T16:13:58.115Z,1000.99
2023-01-13T16:14:58.084Z,1000.91
2023-01-13T16:15:58.106Z,1000.83
2023-01-13T16:16:58.134Z,1000.88
2023-01-13T16:17:58.104Z,1000.81
2023-01-13T16:18:58.141Z,1000.94
2023-01-13T16:19:58.113Z,1000.87
2023-01-13T16:20:58.027Z,1000.86
2023-01-13T16:21:58.033Z,1000.93
2023-01-13T16:22:58.007Z,1000.93
2023-01-13T16:23:58.014Z,1000.98
2023-01-13T16:24:58.011Z,1001.27
2023-01-13T16:25:58.023Z,1001.58
2023-01-13T16:26:58.217Z,1001.17
2023-01-13T16:27:58.011Z,1001.33
2023-01-13T16:28:58.022Z,1001.34
2023-01-13T16:29:57.995Z,1002.07
2023-01-13T16:30:57.939Z,1001.28
2023-01-13T16:31:57.943Z,1001.35
2023-01-13T16:32:57.916Z,1001.22
2023-01-13T16:33:57.959Z,1001.18
2023-01-13T16:34:59.741Z,1001.21
2023-01-13T16:36:11.865Z,1001.12
2023-01-13T16:36:57.926Z,1001.07
2023-01-13T16:40:31.309Z,1001.32
2023-01-13T16:41:31.950Z,1001.26
2023-01-13T16:42:31.835Z,1001.13
2023-01-13T18:06:11.619Z,1002.81
2023-01-13T18:41:52.406Z,1003.52
2023-01-13T20:16:09.444Z,1005.52
2023-01-13T20:17:27.433Z,1005.58
2023-01-13T20:24:50.189Z,1005.75
2023-01-13T21:20:54.300Z,1006.81
2023-01-13T21:21:55.309Z,1006.62
2023-01-13T21:22:55.266Z,1006.66
2023-01-13T21:23:55.235Z,1006.63
2023-01-13T21:24:55.229Z,1006.63
2023-01-13T23:05:49.011Z,1008.25
2023-01-13T23:06:49.965Z,1008.26
2023-01-13T23:07:49.954Z,1008.23
2023-01-13T23:08:49.959Z,1008.32
2023-01-13T23:09:49.932Z,1008.30
2023-01-13T23:10:49.907Z,1008.28
2023-01-13T23:11:49.959Z,1008.31
2023-01-13T23:12:49.880Z,1008.38
2023-01-13T23:13:49.917Z,1008.31
2023-01-13T23:14:49.877Z,1008.42
2023-01-13T23:15:49.856Z,1008.42
2023-01-13T23:16:49.856Z,1008.39
2023-01-13T23:17:49.839Z,1008.47
2023-01-13T23:18:49.845Z,1008.43
2023-01-13T23:19:49.815Z,1008.41
2023-01-13T23:20:49.808Z,1008.35
2023-01-13T23:21:49.800Z,1008.36
2023-01-13T23:22:49.809Z,1008.38
2023-01-13T23:23:49.781Z,1008.45
2023-01-13T23:24:49.747Z,1008.33
2023-01-13T23:25:49.752Z,1008.37
2023-01-13T23:26:49.727Z,1008.38
2023-01-13T23:27:49.767Z,1008.38
2023-01-13T23:28:49.747Z,1008.30
2023-01-13T23:29:49.707Z,1008.29
2023-01-13T23:30:49.719Z,1008.41
2023-01-13T23:31:49.688Z,1008.31
2023-01-13T23:32:49.658Z,1008.36
2023-01-13T23:33:49.660Z,1008.34
2023-01-13T23:34:49.669Z,1008.37
2023-01-13T23:35:49.637Z,1008.42
2023-01-13T23:36:49.652Z,1008.40
2023-01-13T23:37:49.660Z,1008.52
2023-01-13T23:38:49.597Z,1008.42
2023-01-13T23:39:49.860Z,1008.38
2023-01-13T23:40:49.570Z,1008.50
2023-01-13T23:41:49.607Z,1008.47
2023-01-13T23:42:49.582Z,1008.50
